BAW62V MDPP-EGCC
Flight info
| Callsign | BAW62V |
|---|---|
| Flight time | N/A |
| Altitude | 35000 |
| Route | LERED3C LERED L464 RNTRY DCT MNDEZ M594 MLLER/M081F350 DCT BRKZZ DCT 31N060W 39N050W 44N040W 49N030W 51N020W DCT LIMRI/N0462F350 DCT XETBO DCT BOFUM Q37 MALUD |
| Aircraft | B772/H-SDE2E3FGHIJ5LORVWXY/LB1D1 |
Departure
| Time | 2026-05-04 09:17 |
|---|---|
| Airport | Gregorio Luperon International Airport (MDPP) |
Arrival
| Time | N/A |
|---|---|
| Airport | Manchester Airport (EGCC) |
| Time | Latitude | Longitude | Altitude | Speed | Heading |
|---|---|---|---|---|---|
| 2026-05-04 09:01 | 19.75641 | -70.56349 | 44 ft | 0 kts | 218° |
| 2026-05-04 09:05 | 19.75660 | -70.56335 | 42 ft | 4 kts | 206° |
| 2026-05-04 09:05 | 19.75685 | -70.56324 | 40 ft | 4 kts | 201° |
| 2026-05-04 09:06 | 19.75704 | -70.56313 | 39 ft | 3 kts | 255° |
| 2026-05-04 09:07 | 19.75704 | -70.56310 | 38 ft | 0 kts | 258° |
| 2026-05-04 09:09 | 19.75701 | -70.56330 | 38 ft | 8 kts | 264° |
| 2026-05-04 09:10 | 19.75707 | -70.56403 | 37 ft | 10 kts | 269° |
| 2026-05-04 09:10 | 19.75690 | -70.56475 | 36 ft | 10 kts | 252° |
| 2026-05-04 09:10 | 19.75665 | -70.56560 | 36 ft | 13 kts | 253° |
| 2026-05-04 09:10 | 19.75639 | -70.56653 | 35 ft | 13 kts | 253° |
| 2026-05-04 09:11 | 19.75612 | -70.56744 | 35 ft | 13 kts | 253° |
| 2026-05-04 09:11 | 19.75589 | -70.56824 | 34 ft | 13 kts | 253° |
| 2026-05-04 09:11 | 19.75576 | -70.56870 | 33 ft | 13 kts | 253° |
| 2026-05-04 09:14 | 19.75700 | -70.57300 | 29 ft | 12 kts | 258° |
| 2026-05-04 09:14 | 19.75660 | -70.57444 | 28 ft | 28 kts | 253° |
| 2026-05-04 09:14 | 19.75597 | -70.57663 | 27 ft | 30 kts | 253° |
| 2026-05-04 09:14 | 19.75535 | -70.57875 | 32 ft | 30 kts | 253° |
| 2026-05-04 09:15 | 19.75474 | -70.58087 | 33 ft | 30 kts | 253° |
| 2026-05-04 09:15 | 19.75420 | -70.58275 | 32 ft | 17 kts | 249° |
| 2026-05-04 09:15 | 19.75373 | -70.58348 | 31 ft | 10 kts | 232° |
| 2026-05-04 09:15 | 19.75383 | -70.58366 | 32 ft | 4 kts | 8° |
| 2026-05-04 09:17 | 19.77845 | -70.52347 | 2232 ft | 220 kts | 38° |
| 2026-05-04 09:18 | 19.79095 | -70.51314 | 2360 ft | 233 kts | 34° |
| 2026-05-04 09:18 | 19.80599 | -70.50558 | 2502 ft | 248 kts | 18° |
| 2026-05-04 09:18 | 19.82306 | -70.50063 | 3015 ft | 261 kts | 17° |
| 2026-05-04 09:18 | 19.84118 | -70.49584 | 3606 ft | 272 kts | 17° |
| 2026-05-04 09:19 | 19.85978 | -70.49082 | 4255 ft | 278 kts | 17° |
| 2026-05-04 09:19 | 19.87849 | -70.48564 | 5051 ft | 279 kts | 17° |
| 2026-05-04 09:19 | 19.89785 | -70.48019 | 5404 ft | 299 kts | 17° |
| 2026-05-04 09:19 | 19.91880 | -70.47426 | 5619 ft | 323 kts | 16° |
| 2026-05-04 09:20 | 19.94111 | -70.46838 | 5797 ft | 345 kts | 14° |
| 2026-05-04 09:20 | 19.96501 | -70.46261 | 6300 ft | 357 kts | 14° |
| 2026-05-04 09:20 | 19.98950 | -70.45685 | 6932 ft | 364 kts | 13° |
| 2026-05-04 09:20 | 20.01438 | -70.45098 | 7664 ft | 368 kts | 14° |
| 2026-05-04 09:21 | 20.03952 | -70.44500 | 8417 ft | 372 kts | 13° |
| 2026-05-04 09:21 | 20.06491 | -70.43896 | 9136 ft | 376 kts | 13° |
| 2026-05-04 09:21 | 20.09035 | -70.43290 | 9816 ft | 381 kts | 13° |
| 2026-05-04 09:21 | 20.11645 | -70.42664 | 10450 ft | 387 kts | 13° |
| 2026-05-04 09:22 | 20.14291 | -70.42028 | 11119 ft | 392 kts | 13° |
| 2026-05-04 09:22 | 20.16974 | -70.41381 | 11783 ft | 396 kts | 13° |
| 2026-05-04 09:22 | 20.19678 | -70.40729 | 12440 ft | 400 kts | 13° |
| 2026-05-04 09:22 | 20.22418 | -70.40068 | 13096 ft | 403 kts | 12° |
| 2026-05-04 09:23 | 20.25135 | -70.39412 | 13735 ft | 407 kts | 12° |
| 2026-05-04 09:23 | 20.27567 | -70.38825 | 14264 ft | 409 kts | 12° |
| 2026-05-04 09:23 | 20.28149 | -70.38684 | 14389 ft | 410 kts | 12° |
| 2026-05-04 09:25 | 20.48136 | -70.33849 | 18036 ft | 431 kts | 11° |
| 2026-05-04 09:25 | 20.51075 | -70.33137 | 18496 ft | 434 kts | 11° |
| 2026-05-04 09:26 | 20.54041 | -70.32418 | 18939 ft | 437 kts | 12° |
| 2026-05-04 09:26 | 20.57016 | -70.31696 | 19359 ft | 440 kts | 12° |
| 2026-05-04 09:26 | 20.60017 | -70.30969 | 19775 ft | 443 kts | 12° |
| 2026-05-04 09:26 | 20.63036 | -70.30236 | 20156 ft | 446 kts | 12° |
| 2026-05-04 09:27 | 20.66073 | -70.29499 | 20519 ft | 449 kts | 12° |
| 2026-05-04 09:27 | 20.69088 | -70.28766 | 20875 ft | 451 kts | 12° |
| 2026-05-04 09:27 | 20.72171 | -70.28016 | 21224 ft | 454 kts | 12° |
| 2026-05-04 09:27 | 20.75264 | -70.27264 | 21565 ft | 457 kts | 12° |
| 2026-05-04 09:28 | 20.78376 | -70.26507 | 21901 ft | 459 kts | 12° |
| 2026-05-04 09:28 | 20.81477 | -70.25628 | 22207 ft | 462 kts | 17° |
| 2026-05-04 09:28 | 20.84469 | -70.24426 | 22505 ft | 466 kts | 24° |
| 2026-05-04 09:28 | 20.87382 | -70.22884 | 22788 ft | 468 kts | 26° |
| 2026-05-04 09:29 | 20.90296 | -70.21288 | 23076 ft | 471 kts | 26° |
| 2026-05-04 09:29 | 20.93222 | -70.19688 | 23380 ft | 473 kts | 26° |
| 2026-05-04 09:29 | 20.96164 | -70.18086 | 23665 ft | 475 kts | 26° |
| 2026-05-04 09:29 | 20.99128 | -70.16483 | 23929 ft | 478 kts | 26° |
| 2026-05-04 09:30 | 21.02111 | -70.14874 | 24203 ft | 480 kts | 26° |
| 2026-05-04 09:30 | 21.05107 | -70.13262 | 24490 ft | 482 kts | 26° |
| 2026-05-04 09:30 | 21.08118 | -70.11646 | 24726 ft | 484 kts | 25° |
| 2026-05-04 09:30 | 21.11104 | -70.10044 | 24975 ft | 487 kts | 25° |
| 2026-05-04 09:31 | 21.14139 | -70.08412 | 25242 ft | 488 kts | 25° |
| 2026-05-04 09:31 | 21.17180 | -70.06776 | 25474 ft | 491 kts | 25° |
| 2026-05-04 09:31 | 21.20240 | -70.05128 | 25727 ft | 492 kts | 25° |
| 2026-05-04 09:31 | 21.23294 | -70.03483 | 26187 ft | 489 kts | 25° |
| 2026-05-04 09:32 | 21.26329 | -70.01847 | 26623 ft | 487 kts | 25° |
| 2026-05-04 09:32 | 21.29364 | -70.00212 | 26903 ft | 489 kts | 25° |
| 2026-05-04 09:34 | 21.50954 | -69.88555 | 28576 ft | 504 kts | 24° |
| 2026-05-04 09:34 | 21.54090 | -69.86859 | 28817 ft | 505 kts | 24° |
| 2026-05-04 09:34 | 21.57202 | -69.85175 | 29063 ft | 507 kts | 24° |
| 2026-05-04 09:34 | 21.60362 | -69.83462 | 29297 ft | 509 kts | 24° |
| 2026-05-04 09:35 | 21.63533 | -69.81742 | 29518 ft | 511 kts | 24° |
| 2026-05-04 09:35 | 21.66711 | -69.80019 | 29736 ft | 512 kts | 24° |
| 2026-05-04 09:35 | 21.69902 | -69.78287 | 29942 ft | 514 kts | 24° |
| 2026-05-04 09:35 | 21.73101 | -69.76551 | 30150 ft | 515 kts | 24° |
| 2026-05-04 09:37 | 21.95605 | -69.64311 | 31813 ft | 516 kts | 24° |
| 2026-05-04 09:37 | 21.98813 | -69.62562 | 32127 ft | 514 kts | 24° |
| 2026-05-04 09:38 | 22.01968 | -69.60841 | 32407 ft | 514 kts | 24° |
| 2026-05-04 09:38 | 22.05160 | -69.59100 | 32617 ft | 514 kts | 24° |
| 2026-05-04 09:38 | 22.08351 | -69.57360 | 32884 ft | 514 kts | 24° |
| 2026-05-04 09:38 | 22.11539 | -69.55622 | 33159 ft | 513 kts | 24° |
| 2026-05-04 09:39 | 22.14726 | -69.53883 | 33438 ft | 512 kts | 24° |
| 2026-05-04 09:39 | 22.17903 | -69.52146 | 33731 ft | 510 kts | 24° |
| 2026-05-04 09:39 | 22.21078 | -69.50409 | 33995 ft | 509 kts | 24° |
| 2026-05-04 09:39 | 22.24239 | -69.48678 | 34247 ft | 509 kts | 24° |
| 2026-05-04 09:40 | 22.27386 | -69.46954 | 34620 ft | 505 kts | 24° |
| 2026-05-04 09:40 | 22.30512 | -69.45241 | 34970 ft | 502 kts | 24° |
| 2026-05-04 09:40 | 22.33629 | -69.43532 | 35235 ft | 502 kts | 23° |
| 2026-05-04 09:40 | 22.36711 | -69.41843 | 35445 ft | 502 kts | 23° |
| 2026-05-04 09:41 | 22.39834 | -69.40131 | 35665 ft | 502 kts | 23° |
| 2026-05-04 09:42 | 22.60547 | -69.28749 | 36940 ft | 501 kts | 22° |
| 2026-05-04 09:43 | 22.66798 | -69.25307 | 37003 ft | 505 kts | 22° |
| 2026-05-04 09:43 | 22.73029 | -69.21871 | 37010 ft | 504 kts | 22° |
| 2026-05-04 09:44 | 22.79275 | -69.18421 | 37006 ft | 501 kts | 22° |
| 2026-05-04 09:46 | 23.03905 | -69.04794 | 37006 ft | 493 kts | 22° |
| 2026-05-04 09:46 | 23.09984 | -69.01420 | 37009 ft | 493 kts | 22° |
| 2026-05-04 09:47 | 23.16104 | -68.98021 | 37011 ft | 493 kts | 22° |
| 2026-05-04 09:49 | 23.40659 | -68.84349 | 37012 ft | 499 kts | 22° |
| 2026-05-04 09:51 | 23.61265 | -68.70357 | 37016 ft | 511 kts | 46° |
| 2026-05-04 09:51 | 23.65677 | -68.64211 | 37018 ft | 513 kts | 50° |
| 2026-05-04 09:52 | 23.69998 | -68.57995 | 37017 ft | 514 kts | 50° |
| 2026-05-04 09:52 | 23.74347 | -68.51839 | 37022 ft | 514 kts | 49° |
| 2026-05-04 09:53 | 23.78743 | -68.45673 | 37018 ft | 514 kts | 49° |
| 2026-05-04 09:53 | 23.83135 | -68.39508 | 37019 ft | 514 kts | 49° |